sensor_id;sensor_type;location;lat;lon;timestamp;P1;durP1;ratioP1;P2;durP2;ratioP2
23360;SDS011;11852;50.082;18.554;2023-04-24T00:00:36;25.0;;;15.0;;
23360;SDS011;11852;50.082;18.554;2023-04-24T00:01:43;23.0;;;15.0;;
23360;SDS011;11852;50.082;18.554;2023-04-24T00:02:51;22.0;;;14.0;;
23360;SDS011;11852;50.082;18.554;2023-04-24T00:03:58;23.0;;;14.0;;
23360;SDS011;11852;50.082;18.554;2023-04-24T00:05:05;22.0;;;15.0;;
23360;SDS011;11852;50.082;18.554;2023-04-24T00:06:12;23.0;;;14.0;;
23360;SDS011;11852;50.082;18.554;2023-04-24T00:07:18;23.0;;;13.0;;
23360;SDS011;11852;50.082;18.554;2023-04-24T00:08:25;20.0;;;13.0;;
23360;SDS011;11852;50.082;18.554;2023-04-24T00:09:33;23.0;;;14.0;;
23360;SDS011;11852;50.082;18.554;2023-04-24T00:10:40;20.0;;;13.0;;
23360;SDS011;11852;50.082;18.554;2023-04-24T00:11:47;20.0;;;12.0;;
23360;SDS011;11852;50.082;18.554;2023-04-24T00:12:55;21.0;;;12.0;;
23360;SDS011;11852;50.082;18.554;2023-04-24T00:14:02;20.0;;;13.0;;
23360;SDS011;11852;50.082;18.554;2023-04-24T00:15:09;19.0;;;12.0;;
23360;SDS011;11852;50.082;18.554;2023-04-24T00:16:17;18.0;;;12.0;;
23360;SDS011;11852;50.082;18.554;2023-04-24T00:17:23;20.0;;;13.0;;
23360;SDS011;11852;50.082;18.554;2023-04-24T00:18:30;22.0;;;12.0;;
23360;SDS011;11852;50.082;18.554;2023-04-24T00:19:37;24.0;;;12.0;;
23360;SDS011;11852;50.082;18.554;2023-04-24T00:20:44;18.0;;;11.0;;
23360;SDS011;11852;50.082;18.554;2023-04-24T00:21:51;17.0;;;11.0;;
23360;SDS011;11852;50.082;18.554;2023-04-24T00:23:00;17.0;;;11.0;;
23360;SDS011;11852;50.082;18.554;2023-04-24T00:24:07;18.0;;;11.0;;
23360;SDS011;11852;50.082;18.554;2023-04-24T00:25:14;17.0;;;11.0;;
23360;SDS011;11852;50.082;18.554;2023-04-24T00:26:21;17.0;;;11.0;;
23360;SDS011;11852;50.082;18.554;2023-04-24T00:27:28;18.0;;;10.0;;
23360;SDS011;11852;50.082;18.554;2023-04-24T00:28:35;17.0;;;10.0;;
23360;SDS011;11852;50.082;18.554;2023-04-24T00:29:42;17.0;;;10.0;;
23360;SDS011;11852;50.082;18.554;2023-04-24T00:30:49;16.0;;;10.0;;
23360;SDS011;11852;50.082;18.554;2023-04-24T00:31:57;15.0;;;10.0;;
23360;SDS011;11852;50.082;18.554;2023-04-24T00:33:03;15.0;;;9.0;;
23360;SDS011;11852;50.082;18.554;2023-04-24T00:34:10;16.0;;;9.0;;
23360;SDS011;11852;50.082;18.554;2023-04-24T00:35:17;14.0;;;8.0;;
23360;SDS011;11852;50.082;18.554;2023-04-24T00:36:24;15.0;;;9.0;;
23360;SDS011;11852;50.082;18.554;2023-04-24T00:37:31;14.0;;;9.0;;
23360;SDS011;11852;50.082;18.554;2023-04-24T00:38:39;13.0;;;8.0;;
23360;SDS011;11852;50.082;18.554;2023-04-24T00:39:46;15.0;;;9.0;;
23360;SDS011;11852;50.082;18.554;2023-04-24T00:40:52;15.0;;;9.0;;
23360;SDS011;11852;50.082;18.554;2023-04-24T00:41:59;16.0;;;9.0;;
23360;SDS011;11852;50.082;18.554;2023-04-24T00:43:06;15.0;;;9.0;;
23360;SDS011;11852;50.082;18.554;2023-04-24T00:44:13;17.0;;;9.0;;
23360;SDS011;11852;50.082;18.554;2023-04-24T00:45:20;14.0;;;9.0;;
23360;SDS011;11852;50.082;18.554;2023-04-24T00:46:27;15.0;;;8.0;;
23360;SDS011;11852;50.082;18.554;2023-04-24T00:47:34;14.0;;;9.0;;
23360;SDS011;11852;50.082;18.554;2023-04-24T00:48:41;15.0;;;9.0;;
23360;SDS011;11852;50.082;18.554;2023-04-24T00:49:49;14.0;;;8.0;;
23360;SDS011;11852;50.082;18.554;2023-04-24T00:50:57;14.0;;;9.0;;
23360;SDS011;11852;50.082;18.554;2023-04-24T00:52:03;13.0;;;8.0;;
23360;SDS011;11852;50.082;18.554;2023-04-24T00:53:10;14.0;;;9.0;;
23360;SDS011;11852;50.082;18.554;2023-04-24T00:54:17;14.0;;;8.0;;
23360;SDS011;11852;50.082;18.554;2023-04-24T00:55:24;16.0;;;9.0;;
23360;SDS011;11852;50.082;18.554;2023-04-24T00:56:31;13.0;;;9.0;;
23360;SDS011;11852;50.082;18.554;2023-04-24T00:57:38;13.0;;;8.0;;
23360;SDS011;11852;50.082;18.554;2023-04-24T00:58:45;16.0;;;9.0;;
23360;SDS011;11852;50.082;18.554;2023-04-24T00:59:52;14.0;;;8.0;;
23360;SDS011;11852;50.082;18.554;2023-04-24T01:00:58;13.0;;;8.0;;
23360;SDS011;11852;50.082;18.554;2023-04-24T01:02:05;13.0;;;8.0;;
23360;SDS011;11852;50.082;18.554;2023-04-24T01:03:13;15.0;;;8.0;;
23360;SDS011;11852;50.082;18.554;2023-04-24T01:04:20;14.0;;;8.0;;
23360;SDS011;11852;50.082;18.554;2023-04-24T01:05:27;16.0;;;9.0;;
23360;SDS011;11852;50.082;18.554;2023-04-24T01:06:34;13.0;;;8.0;;
23360;SDS011;11852;50.082;18.554;2023-04-24T01:07:41;12.0;;;8.0;;
23360;SDS011;11852;50.082;18.554;2023-04-24T01:08:47;14.0;;;8.0;;
23360;SDS011;11852;50.082;18.554;2023-04-24T01:09:54;11.0;;;7.0;;
23360;SDS011;11852;50.082;18.554;2023-04-24T01:11:01;12.0;;;7.0;;
23360;SDS011;11852;50.082;18.554;2023-04-24T01:12:08;14.0;;;7.0;;
23360;SDS011;11852;50.082;18.554;2023-04-24T01:13:15;14.0;;;7.0;;
23360;SDS011;11852;50.082;18.554;2023-04-24T01:14:22;13.0;;;7.0;;
23360;SDS011;11852;50.082;18.554;2023-04-24T01:15:29;13.0;;;7.0;;
23360;SDS011;11852;50.082;18.554;2023-04-24T01:16:36;14.0;;;8.0;;
23360;SDS011;11852;50.082;18.554;2023-04-24T01:17:43;12.0;;;8.0;;
23360;SDS011;11852;50.082;18.554;2023-04-24T01:18:51;13.0;;;7.0;;
23360;SDS011;11852;50.082;18.554;2023-04-24T01:19:59;14.0;;;8.0;;
23360;SDS011;11852;50.082;18.554;2023-04-24T01:21:05;11.0;;;8.0;;
23360;SDS011;11852;50.082;18.554;2023-04-24T01:22:13;11.0;;;7.0;;
23360;SDS011;11852;50.082;18.554;2023-04-24T01:23:19;11.0;;;7.0;;
23360;SDS011;11852;50.082;18.554;2023-04-24T01:24:26;18.0;;;7.0;;
23360;SDS011;11852;50.082;18.554;2023-04-24T01:25:33;11.0;;;7.0;;
23360;SDS011;11852;50.082;18.554;2023-04-24T01:26:40;11.0;;;7.0;;
23360;SDS011;11852;50.082;18.554;2023-04-24T01:27:47;13.0;;;7.0;;
23360;SDS011;11852;50.082;18.554;2023-04-24T01:28:53;12.0;;;7.0;;
23360;SDS011;11852;50.082;18.554;2023-04-24T01:30:00;12.0;;;8.0;;
23360;SDS011;11852;50.082;18.554;2023-04-24T01:31:07;11.0;;;7.0;;
23360;SDS011;11852;50.082;18.554;2023-04-24T01:32:14;14.0;;;7.0;;
23360;SDS011;11852;50.082;18.554;2023-04-24T01:33:22;12.0;;;8.0;;
23360;SDS011;11852;50.082;18.554;2023-04-24T01:34:30;12.0;;;7.0;;
23360;SDS011;11852;50.082;18.554;2023-04-24T01:35:37;12.0;;;8.0;;
23360;SDS011;11852;50.082;18.554;2023-04-24T01:36:44;11.0;;;8.0;;
23360;SDS011;11852;50.082;18.554;2023-04-24T01:37:50;13.0;;;8.0;;
23360;SDS011;11852;50.082;18.554;2023-04-24T01:38:57;12.0;;;8.0;;
23360;SDS011;11852;50.082;18.554;2023-04-24T01:40:07;15.0;;;8.0;;
23360;SDS011;11852;50.082;18.554;2023-04-24T01:41:14;16.0;;;9.0;;
23360;SDS011;11852;50.082;18.554;2023-04-24T01:42:21;14.0;;;9.0;;
23360;SDS011;11852;50.082;18.554;2023-04-24T01:43:27;14.0;;;9.0;;
23360;SDS011;11852;50.082;18.554;2023-04-24T01:44:35;14.0;;;9.0;;
23360;SDS011;11852;50.082;18.554;2023-04-24T01:45:42;15.0;;;9.0;;
23360;SDS011;11852;50.082;18.554;2023-04-24T01:46:51;13.0;;;9.0;;
23360;SDS011;11852;50.082;18.554;2023-04-24T01:47:57;13.0;;;8.0;;
23360;SDS011;11852;50.082;18.554;2023-04-24T01:49:05;12.0;;;8.0;;
23360;SDS011;11852;50.082;18.554;2023-04-24T01:50:11;14.0;;;8.0;;
23360;SDS011;11852;50.082;18.554;2023-04-24T01:51:18;13.0;;;8.0;;
23360;SDS011;11852;50.082;18.554;2023-04-24T01:52:25;13.0;;;8.0;;
23360;SDS011;11852;50.082;18.554;2023-04-24T01:53:32;14.0;;;8.0;;
23360;SDS011;11852;50.082;18.554;2023-04-24T01:54:39;15.0;;;9.0;;
23360;SDS011;11852;50.082;18.554;2023-04-24T01:55:46;16.0;;;9.0;;
23360;SDS011;11852;50.082;18.554;2023-04-24T01:56:53;14.0;;;8.0;;
23360;SDS011;11852;50.082;18.554;2023-04-24T01:57:59;14.0;;;8.0;;
23360;SDS011;11852;50.082;18.554;2023-04-24T01:59:06;16.0;;;9.0;;
23360;SDS011;11852;50.082;18.554;2023-04-24T02:00:13;15.0;;;8.0;;
23360;SDS011;11852;50.082;18.554;2023-04-24T02:01:23;14.0;;;9.0;;
23360;SDS011;11852;50.082;18.554;2023-04-24T02:02:28;15.0;;;9.0;;
23360;SDS011;11852;50.082;18.554;2023-04-24T02:03:35;14.0;;;8.0;;
23360;SDS011;11852;50.082;18.554;2023-04-24T02:04:42;12.0;;;8.0;;
23360;SDS011;11852;50.082;18.554;2023-04-24T02:05:49;14.0;;;8.0;;
23360;SDS011;11852;50.082;18.554;2023-04-24T02:06:56;14.0;;;8.0;;
23360;SDS011;11852;50.082;18.554;2023-04-24T02:08:03;13.0;;;8.0;;
23360;SDS011;11852;50.082;18.554;2023-04-24T02:09:09;12.0;;;8.0;;
23360;SDS011;11852;50.082;18.554;2023-04-24T02:10:16;17.0;;;8.0;;
23360;SDS011;11852;50.082;18.554;2023-04-24T02:11:23;13.0;;;8.0;;
23360;SDS011;11852;50.082;18.554;2023-04-24T02:12:30;14.0;;;8.0;;
23360;SDS011;11852;50.082;18.554;2023-04-24T02:13:37;14.0;;;8.0;;
23360;SDS011;11852;50.082;18.554;2023-04-24T02:14:44;15.0;;;9.0;;
23360;SDS011;11852;50.082;18.554;2023-04-24T02:15:51;13.0;;;8.0;;
23360;SDS011;11852;50.082;18.554;2023-04-24T02:16:58;12.0;;;8.0;;
23360;SDS011;11852;50.082;18.554;2023-04-24T02:18:05;13.0;;;8.0;;
23360;SDS011;11852;50.082;18.554;2023-04-24T02:19:11;13.0;;;8.0;;
23360;SDS011;11852;50.082;18.554;2023-04-24T02:20:20;12.0;;;8.0;;
23360;SDS011;11852;50.082;18.554;2023-04-24T02:21:28;13.0;;;8.0;;
23360;SDS011;11852;50.082;18.554;2023-04-24T02:22:35;15.0;;;8.0;;
23360;SDS011;11852;50.082;18.554;2023-04-24T02:23:42;13.0;;;8.0;;
23360;SDS011;11852;50.082;18.554;2023-04-24T02:24:49;16.0;;;8.0;;
23360;SDS011;11852;50.082;18.554;2023-04-24T02:25:56;14.0;;;8.0;;
23360;SDS011;11852;50.082;18.554;2023-04-24T02:27:02;14.0;;;8.0;;
23360;SDS011;11852;50.082;18.554;2023-04-24T02:28:09;13.0;;;8.0;;
23360;SDS011;11852;50.082;18.554;2023-04-24T02:29:16;12.0;;;8.0;;
23360;SDS011;11852;50.082;18.554;2023-04-24T02:30:23;14.0;;;8.0;;
23360;SDS011;11852;50.082;18.554;2023-04-24T02:31:30;15.0;;;8.0;;
23360;SDS011;11852;50.082;18.554;2023-04-24T02:32:37;13.0;;;7.0;;
23360;SDS011;11852;50.082;18.554;2023-04-24T02:33:44;13.0;;;8.0;;
23360;SDS011;11852;50.082;18.554;2023-04-24T02:34:51;14.0;;;7.0;;
23360;SDS011;11852;50.082;18.554;2023-04-24T02:35:58;17.0;;;8.0;;
23360;SDS011;11852;50.082;18.554;2023-04-24T02:37:05;11.0;;;7.0;;
23360;SDS011;11852;50.082;18.554;2023-04-24T02:38:12;14.0;;;7.0;;
23360;SDS011;11852;50.082;18.554;2023-04-24T02:39:18;11.0;;;7.0;;
23360;SDS011;11852;50.082;18.554;2023-04-24T02:40:25;13.0;;;8.0;;
23360;SDS011;11852;50.082;18.554;2023-04-24T02:41:32;13.0;;;7.0;;
23360;SDS011;11852;50.082;18.554;2023-04-24T02:42:39;12.0;;;7.0;;
23360;SDS011;11852;50.082;18.554;2023-04-24T02:43:46;13.0;;;7.0;;
23360;SDS011;11852;50.082;18.554;2023-04-24T02:44:55;12.0;;;7.0;;
23360;SDS011;11852;50.082;18.554;2023-04-24T02:46:01;14.0;;;7.0;;
23360;SDS011;11852;50.082;18.554;2023-04-24T02:47:08;16.0;;;7.0;;
23360;SDS011;11852;50.082;18.554;2023-04-24T02:48:15;12.0;;;7.0;;
23360;SDS011;11852;50.082;18.554;2023-04-24T02:49:22;14.0;;;8.0;;
23360;SDS011;11852;50.082;18.554;2023-04-24T02:50:29;14.0;;;8.0;;
23360;SDS011;11852;50.082;18.554;2023-04-24T02:51:38;14.0;;;7.0;;
23360;SDS011;11852;50.082;18.554;2023-04-24T02:52:45;12.0;;;7.0;;
23360;SDS011;11852;50.082;18.554;2023-04-24T02:53:54;14.0;;;8.0;;
23360;SDS011;11852;50.082;18.554;2023-04-24T02:55:01;15.0;;;8.0;;
23360;SDS011;11852;50.082;18.554;2023-04-24T02:56:08;14.0;;;7.0;;
23360;SDS011;11852;50.082;18.554;2023-04-24T02:57:16;13.0;;;8.0;;
23360;SDS011;11852;50.082;18.554;2023-04-24T02:58:23;14.0;;;7.0;;
23360;SDS011;11852;50.082;18.554;2023-04-24T02:59:30;13.0;;;7.0;;
23360;SDS011;11852;50.082;18.554;2023-04-24T03:00:37;13.0;;;7.0;;
23360;SDS011;11852;50.082;18.554;2023-04-24T03:01:43;12.0;;;7.0;;
23360;SDS011;11852;50.082;18.554;2023-04-24T03:02:51;12.0;;;7.0;;
23360;SDS011;11852;50.082;18.554;2023-04-24T03:03:59;12.0;;;7.0;;
23360;SDS011;11852;50.082;18.554;2023-04-24T03:05:06;14.0;;;8.0;;
23360;SDS011;11852;50.082;18.554;2023-04-24T03:06:13;11.0;;;7.0;;
23360;SDS011;11852;50.082;18.554;2023-04-24T03:07:20;12.0;;;7.0;;
23360;SDS011;11852;50.082;18.554;2023-04-24T03:08:27;13.0;;;7.0;;
23360;SDS011;11852;50.082;18.554;2023-04-24T03:09:33;12.0;;;7.0;;
23360;SDS011;11852;50.082;18.554;2023-04-24T03:10:40;10.0;;;6.0;;
23360;SDS011;11852;50.082;18.554;2023-04-24T03:11:48;11.0;;;7.0;;
23360;SDS011;11852;50.082;18.554;2023-04-24T03:12:55;11.0;;;7.0;;
23360;SDS011;11852;50.082;18.554;2023-04-24T03:14:02;12.0;;;7.0;;
23360;SDS011;11852;50.082;18.554;2023-04-24T03:15:11;14.0;;;7.0;;
23360;SDS011;11852;50.082;18.554;2023-04-24T03:16:19;13.0;;;7.0;;
23360;SDS011;11852;50.082;18.554;2023-04-24T03:17:26;14.0;;;7.0;;
23360;SDS011;11852;50.082;18.554;2023-04-24T03:18:34;15.0;;;8.0;;
23360;SDS011;11852;50.082;18.554;2023-04-24T03:19:40;14.0;;;7.0;;
23360;SDS011;11852;50.082;18.554;2023-04-24T03:20:47;12.0;;;7.0;;
23360;SDS011;11852;50.082;18.554;2023-04-24T03:21:54;15.0;;;8.0;;
23360;SDS011;11852;50.082;18.554;2023-04-24T03:23:01;12.0;;;8.0;;
23360;SDS011;11852;50.082;18.554;2023-04-24T03:24:08;14.0;;;7.0;;
23360;SDS011;11852;50.082;18.554;2023-04-24T03:25:15;13.0;;;8.0;;
23360;SDS011;11852;50.082;18.554;2023-04-24T03:26:22;14.0;;;7.0;;
23360;SDS011;11852;50.082;18.554;2023-04-24T03:27:29;13.0;;;7.0;;
23360;SDS011;11852;50.082;18.554;2023-04-24T03:28:35;11.0;;;7.0;;
23360;SDS011;11852;50.082;18.554;2023-04-24T03:29:42;14.0;;;7.0;;
23360;SDS011;11852;50.082;18.554;2023-04-24T03:30:50;12.0;;;7.0;;
23360;SDS011;11852;50.082;18.554;2023-04-24T03:31:57;12.0;;;7.0;;
23360;SDS011;11852;50.082;18.554;2023-04-24T03:33:05;14.0;;;7.0;;
23360;SDS011;11852;50.082;18.554;2023-04-24T03:34:12;12.0;;;7.0;;
23360;SDS011;11852;50.082;18.554;2023-04-24T03:35:18;14.0;;;7.0;;
23360;SDS011;11852;50.082;18.554;2023-04-24T03:36:25;14.0;;;7.0;;
23360;SDS011;11852;50.082;18.554;2023-04-24T03:37:32;13.0;;;7.0;;
23360;SDS011;11852;50.082;18.554;2023-04-24T03:38:39;12.0;;;7.0;;
23360;SDS011;11852;50.082;18.554;2023-04-24T03:39:46;10.0;;;7.0;;
23360;SDS011;11852;50.082;18.554;2023-04-24T03:40:53;11.0;;;7.0;;
23360;SDS011;11852;50.082;18.554;2023-04-24T03:42:00;12.0;;;7.0;;
23360;SDS011;11852;50.082;18.554;2023-04-24T03:43:07;14.0;;;7.0;;
23360;SDS011;11852;50.082;18.554;2023-04-24T03:44:13;15.0;;;7.0;;
23360;SDS011;11852;50.082;18.554;2023-04-24T03:45:21;12.0;;;7.0;;
23360;SDS011;11852;50.082;18.554;2023-04-24T03:46:28;15.0;;;8.0;;
23360;SDS011;11852;50.082;18.554;2023-04-24T03:47:35;14.0;;;7.0;;
23360;SDS011;11852;50.082;18.554;2023-04-24T03:48:42;13.0;;;8.0;;
23360;SDS011;11852;50.082;18.554;2023-04-24T03:49:48;13.0;;;7.0;;
23360;SDS011;11852;50.082;18.554;2023-04-24T03:50:56;13.0;;;8.0;;
23360;SDS011;11852;50.082;18.554;2023-04-24T03:52:03;12.0;;;7.0;;
23360;SDS011;11852;50.082;18.554;2023-04-24T03:53:10;13.0;;;7.0;;
23360;SDS011;11852;50.082;18.554;2023-04-24T03:54:17;12.0;;;7.0;;
23360;SDS011;11852;50.082;18.554;2023-04-24T03:55:24;12.0;;;7.0;;
23360;SDS011;11852;50.082;18.554;2023-04-24T03:56:31;14.0;;;7.0;;
23360;SDS011;11852;50.082;18.554;2023-04-24T03:57:37;13.0;;;7.0;;
23360;SDS011;11852;50.082;18.554;2023-04-24T03:58:44;13.0;;;8.0;;
23360;SDS011;11852;50.082;18.554;2023-04-24T03:59:52;13.0;;;7.0;;
23360;SDS011;11852;50.082;18.554;2023-04-24T04:00:59;12.0;;;7.0;;
23360;SDS011;11852;50.082;18.554;2023-04-24T04:02:06;11.0;;;7.0;;
23360;SDS011;11852;50.082;18.554;2023-04-24T04:03:13;13.0;;;7.0;;
23360;SDS011;11852;50.082;18.554;2023-04-24T04:04:20;13.0;;;8.0;;
23360;SDS011;11852;50.082;18.554;2023-04-24T04:05:27;12.0;;;7.0;;
23360;SDS011;11852;50.082;18.554;2023-04-24T04:06:36;13.0;;;8.0;;
23360;SDS011;11852;50.082;18.554;2023-04-24T04:07:43;12.0;;;7.0;;
23360;SDS011;11852;50.082;18.554;2023-04-24T04:08:50;13.0;;;8.0;;
23360;SDS011;11852;50.082;18.554;2023-04-24T04:09:57;14.0;;;7.0;;
23360;SDS011;11852;50.082;18.554;2023-04-24T04:11:06;16.0;;;7.0;;
23360;SDS011;11852;50.082;18.554;2023-04-24T04:12:13;14.0;;;8.0;;
23360;SDS011;11852;50.082;18.554;2023-04-24T04:13:20;14.0;;;8.0;;
23360;SDS011;11852;50.082;18.554;2023-04-24T04:14:27;12.0;;;7.0;;
23360;SDS011;11852;50.082;18.554;2023-04-24T04:15:34;12.0;;;7.0;;
23360;SDS011;11852;50.082;18.554;2023-04-24T04:16:41;14.0;;;7.0;;
23360;SDS011;11852;50.082;18.554;2023-04-24T04:17:48;12.0;;;7.0;;
23360;SDS011;11852;50.082;18.554;2023-04-24T04:18:55;13.0;;;7.0;;
23360;SDS011;11852;50.082;18.554;2023-04-24T04:20:01;14.0;;;7.0;;
23360;SDS011;11852;50.082;18.554;2023-04-24T04:21:08;14.0;;;7.0;;
23360;SDS011;11852;50.082;18.554;2023-04-24T04:22:15;12.0;;;7.0;;
23360;SDS011;11852;50.082;18.554;2023-04-24T04:23:23;15.0;;;7.0;;
23360;SDS011;11852;50.082;18.554;2023-04-24T04:24:30;18.0;;;7.0;;
23360;SDS011;11852;50.082;18.554;2023-04-24T04:25:38;14.0;;;7.0;;
23360;SDS011;11852;50.082;18.554;2023-04-24T04:26:46;11.0;;;7.0;;
23360;SDS011;11852;50.082;18.554;2023-04-24T04:27:52;15.0;;;8.0;;
23360;SDS011;11852;50.082;18.554;2023-04-24T04:28:59;14.0;;;7.0;;
23360;SDS011;11852;50.082;18.554;2023-04-24T04:30:06;15.0;;;8.0;;
23360;SDS011;11852;50.082;18.554;2023-04-24T04:31:13;14.0;;;8.0;;
23360;SDS011;11852;50.082;18.554;2023-04-24T04:32:20;14.0;;;8.0;;
23360;SDS011;11852;50.082;18.554;2023-04-24T04:33:27;13.0;;;8.0;;
23360;SDS011;11852;50.082;18.554;2023-04-24T04:34:34;14.0;;;8.0;;
23360;SDS011;11852;50.082;18.554;2023-04-24T04:35:41;14.0;;;8.0;;
23360;SDS011;11852;50.082;18.554;2023-04-24T04:36:48;14.0;;;9.0;;
23360;SDS011;11852;50.082;18.554;2023-04-24T04:37:56;13.0;;;8.0;;
23360;SDS011;11852;50.082;18.554;2023-04-24T04:39:03;15.0;;;9.0;;
23360;SDS011;11852;50.082;18.554;2023-04-24T04:40:10;14.0;;;8.0;;
23360;SDS011;11852;50.082;18.554;2023-04-24T04:41:17;15.0;;;9.0;;
23360;SDS011;11852;50.082;18.554;2023-04-24T04:42:24;16.0;;;9.0;;
23360;SDS011;11852;50.082;18.554;2023-04-24T04:43:30;17.0;;;8.0;;
23360;SDS011;11852;50.082;18.554;2023-04-24T04:44:37;16.0;;;8.0;;
23360;SDS011;11852;50.082;18.554;2023-04-24T04:45:44;15.0;;;9.0;;
23360;SDS011;11852;50.082;18.554;2023-04-24T04:46:51;17.0;;;9.0;;
23360;SDS011;11852;50.082;18.554;2023-04-24T04:47:58;16.0;;;8.0;;
23360;SDS011;11852;50.082;18.554;2023-04-24T04:49:04;14.0;;;8.0;;
23360;SDS011;11852;50.082;18.554;2023-04-24T04:50:11;14.0;;;8.0;;
23360;SDS011;11852;50.082;18.554;2023-04-24T04:51:19;17.0;;;9.0;;
23360;SDS011;11852;50.082;18.554;2023-04-24T04:52:26;14.0;;;8.0;;
23360;SDS011;11852;50.082;18.554;2023-04-24T04:53:33;19.0;;;8.0;;
23360;SDS011;11852;50.082;18.554;2023-04-24T04:54:40;14.0;;;8.0;;
23360;SDS011;11852;50.082;18.554;2023-04-24T04:55:47;16.0;;;8.0;;
23360;SDS011;11852;50.082;18.554;2023-04-24T04:56:54;16.0;;;8.0;;
23360;SDS011;11852;50.082;18.554;2023-04-24T04:58:03;14.0;;;8.0;;
23360;SDS011;11852;50.082;18.554;2023-04-24T04:59:10;13.0;;;8.0;;
23360;SDS011;11852;50.082;18.554;2023-04-24T05:00:17;16.0;;;8.0;;
23360;SDS011;11852;50.082;18.554;2023-04-24T05:01:24;15.0;;;8.0;;
23360;SDS011;11852;50.082;18.554;2023-04-24T05:02:31;16.0;;;8.0;;
23360;SDS011;11852;50.082;18.554;2023-04-24T05:03:38;16.0;;;8.0;;
23360;SDS011;11852;50.082;18.554;2023-04-24T05:04:45;15.0;;;8.0;;
23360;SDS011;11852;50.082;18.554;2023-04-24T05:05:52;15.0;;;7.0;;
23360;SDS011;11852;50.082;18.554;2023-04-24T05:06:59;16.0;;;8.0;;
23360;SDS011;11852;50.082;18.554;2023-04-24T05:08:06;14.0;;;8.0;;
23360;SDS011;11852;50.082;18.554;2023-04-24T05:09:15;13.0;;;7.0;;
23360;SDS011;11852;50.082;18.554;2023-04-24T05:10:22;17.0;;;8.0;;
23360;SDS011;11852;50.082;18.554;2023-04-24T05:11:28;18.0;;;7.0;;
23360;SDS011;11852;50.082;18.554;2023-04-24T05:12:35;12.0;;;7.0;;
23360;SDS011;11852;50.082;18.554;2023-04-24T05:13:42;14.0;;;7.0;;
23360;SDS011;11852;50.082;18.554;2023-04-24T05:14:49;16.0;;;6.0;;
23360;SDS011;11852;50.082;18.554;2023-04-24T05:15:55;13.0;;;6.0;;
23360;SDS011;11852;50.082;18.554;2023-04-24T05:17:02;13.0;;;7.0;;
23360;SDS011;11852;50.082;18.554;2023-04-24T05:18:09;12.0;;;6.0;;
23360;SDS011;11852;50.082;18.554;2023-04-24T05:19:16;14.0;;;6.0;;
23360;SDS011;11852;50.082;18.554;2023-04-24T05:20:23;11.0;;;6.0;;
23360;SDS011;11852;50.082;18.554;2023-04-24T05:21:30;11.0;;;6.0;;
23360;SDS011;11852;50.082;18.554;2023-04-24T05:22:37;12.0;;;6.0;;
23360;SDS011;11852;50.082;18.554;2023-04-24T05:23:43;13.0;;;6.0;;
23360;SDS011;11852;50.082;18.554;2023-04-24T05:24:50;12.0;;;6.0;;
23360;SDS011;11852;50.082;18.554;2023-04-24T05:25:57;9.0;;;6.0;;
23360;SDS011;11852;50.082;18.554;2023-04-24T05:27:06;11.0;;;6.0;;
23360;SDS011;11852;50.082;18.554;2023-04-24T05:28:13;13.0;;;6.0;;
23360;SDS011;11852;50.082;18.554;2023-04-24T05:29:20;12.0;;;6.0;;
23360;SDS011;11852;50.082;18.554;2023-04-24T05:30:27;11.0;;;6.0;;
23360;SDS011;11852;50.082;18.554;2023-04-24T05:31:34;12.0;;;7.0;;
23360;SDS011;11852;50.082;18.554;2023-04-24T05:32:41;13.0;;;6.0;;
23360;SDS011;11852;50.082;18.554;2023-04-24T05:33:48;12.0;;;6.0;;
23360;SDS011;11852;50.082;18.554;2023-04-24T05:34:54;17.0;;;6.0;;
23360;SDS011;11852;50.082;18.554;2023-04-24T05:36:01;14.0;;;7.0;;
23360;SDS011;11852;50.082;18.554;2023-04-24T05:37:08;16.0;;;6.0;;
23360;SDS011;11852;50.082;18.554;2023-04-24T05:38:15;13.0;;;6.0;;
23360;SDS011;11852;50.082;18.554;2023-04-24T05:39:22;19.0;;;6.0;;
23360;SDS011;11852;50.082;18.554;2023-04-24T05:40:29;14.0;;;6.0;;
23360;SDS011;11852;50.082;18.554;2023-04-24T05:41:35;15.0;;;7.0;;
23360;SDS011;11852;50.082;18.554;2023-04-24T05:42:42;17.0;;;7.0;;
23360;SDS011;11852;50.082;18.554;2023-04-24T05:43:49;16.0;;;7.0;;
23360;SDS011;11852;50.082;18.554;2023-04-24T05:44:56;17.0;;;7.0;;
23360;SDS011;11852;50.082;18.554;2023-04-24T05:46:03;18.0;;;7.0;;
23360;SDS011;11852;50.082;18.554;2023-04-24T05:47:09;15.0;;;6.0;;
23360;SDS011;11852;50.082;18.554;2023-04-24T05:48:16;18.0;;;7.0;;
23360;SDS011;11852;50.082;18.554;2023-04-24T05:49:23;15.0;;;6.0;;
23360;SDS011;11852;50.082;18.554;2023-04-24T05:50:30;14.0;;;7.0;;
23360;SDS011;11852;50.082;18.554;2023-04-24T05:51:37;15.0;;;7.0;;
23360;SDS011;11852;50.082;18.554;2023-04-24T05:52:43;16.0;;;7.0;;
23360;SDS011;11852;50.082;18.554;2023-04-24T05:53:51;23.0;;;7.0;;
23360;SDS011;11852;50.082;18.554;2023-04-24T05:54:57;17.0;;;7.0;;
23360;SDS011;11852;50.082;18.554;2023-04-24T05:56:04;19.0;;;7.0;;
23360;SDS011;11852;50.082;18.554;2023-04-24T05:57:11;17.0;;;7.0;;
23360;SDS011;11852;50.082;18.554;2023-04-24T05:58:18;20.0;;;7.0;;
23360;SDS011;11852;50.082;18.554;2023-04-24T05:59:25;24.0;;;7.0;;
23360;SDS011;11852;50.082;18.554;2023-04-24T06:00:32;20.0;;;7.0;;
23360;SDS011;11852;50.082;18.554;2023-04-24T06:01:39;22.0;;;8.0;;
23360;SDS011;11852;50.082;18.554;2023-04-24T06:02:46;18.0;;;7.0;;
23360;SDS011;11852;50.082;18.554;2023-04-24T06:03:53;19.0;;;7.0;;
23360;SDS011;11852;50.082;18.554;2023-04-24T06:04:59;20.0;;;7.0;;
23360;SDS011;11852;50.082;18.554;2023-04-24T06:06:07;20.0;;;8.0;;
23360;SDS011;11852;50.082;18.554;2023-04-24T06:07:13;21.0;;;8.0;;
23360;SDS011;11852;50.082;18.554;2023-04-24T06:08:20;20.0;;;8.0;;
23360;SDS011;11852;50.082;18.554;2023-04-24T06:09:27;25.0;;;8.0;;
23360;SDS011;11852;50.082;18.554;2023-04-24T06:10:34;20.0;;;8.0;;
23360;SDS011;11852;50.082;18.554;2023-04-24T06:11:40;18.0;;;7.0;;
23360;SDS011;11852;50.082;18.554;2023-04-24T06:12:47;20.0;;;7.0;;
23360;SDS011;11852;50.082;18.554;2023-04-24T06:13:54;20.0;;;8.0;;
23360;SDS011;11852;50.082;18.554;2023-04-24T06:15:01;16.0;;;7.0;;
23360;SDS011;11852;50.082;18.554;2023-04-24T06:16:08;19.0;;;7.0;;
23360;SDS011;11852;50.082;18.554;2023-04-24T06:17:15;16.0;;;8.0;;
23360;SDS011;11852;50.082;18.554;2023-04-24T06:18:22;22.0;;;7.0;;
23360;SDS011;11852;50.082;18.554;2023-04-24T06:19:29;16.0;;;7.0;;
23360;SDS011;11852;50.082;18.554;2023-04-24T06:20:36;17.0;;;7.0;;
23360;SDS011;11852;50.082;18.554;2023-04-24T06:21:42;14.0;;;7.0;;
23360;SDS011;11852;50.082;18.554;2023-04-24T06:22:49;16.0;;;7.0;;
23360;SDS011;11852;50.082;18.554;2023-04-24T06:23:56;18.0;;;7.0;;
23360;SDS011;11852;50.082;18.554;2023-04-24T06:25:03;40.0;;;8.0;;
23360;SDS011;11852;50.082;18.554;2023-04-24T06:26:10;20.0;;;7.0;;
23360;SDS011;11852;50.082;18.554;2023-04-24T06:27:17;17.0;;;6.0;;
23360;SDS011;11852;50.082;18.554;2023-04-24T06:28:24;16.0;;;6.0;;
23360;SDS011;11852;50.082;18.554;2023-04-24T06:29:30;17.0;;;6.0;;
23360;SDS011;11852;50.082;18.554;2023-04-24T06:30:37;15.0;;;6.0;;
23360;SDS011;11852;50.082;18.554;2023-04-24T06:31:44;15.0;;;6.0;;
23360;SDS011;11852;50.082;18.554;2023-04-24T06:32:51;15.0;;;6.0;;
23360;SDS011;11852;50.082;18.554;2023-04-24T06:33:58;16.0;;;6.0;;
23360;SDS011;11852;50.082;18.554;2023-04-24T06:35:05;13.0;;;6.0;;
23360;SDS011;11852;50.082;18.554;2023-04-24T06:36:12;13.0;;;6.0;;
23360;SDS011;11852;50.082;18.554;2023-04-24T06:37:19;11.0;;;5.0;;
23360;SDS011;11852;50.082;18.554;2023-04-24T06:38:25;11.0;;;5.0;;
23360;SDS011;11852;50.082;18.554;2023-04-24T06:39:32;16.0;;;5.0;;
23360;SDS011;11852;50.082;18.554;2023-04-24T06:40:39;29.0;;;5.0;;
23360;SDS011;11852;50.082;18.554;2023-04-24T06:41:46;24.0;;;5.0;;
23360;SDS011;11852;50.082;18.554;2023-04-24T06:42:53;13.0;;;5.0;;